createdAt,value
2019-05-30T00:00:11.303Z,7.62
2019-05-30T00:02:32.360Z,9.05
2019-05-30T00:05:02.617Z,7.47
2019-05-30T00:07:31.565Z,7.90
2019-05-30T00:10:00.616Z,10.32
2019-05-30T00:12:29.321Z,8.68
2019-05-30T00:14:58.603Z,9.28
2019-05-30T00:17:27.376Z,10.08
2019-05-30T00:19:56.722Z,7.47
2019-05-30T00:22:25.522Z,10.32
2019-05-30T00:24:54.198Z,7.35
2019-05-30T00:27:22.972Z,10.18
2019-05-30T00:29:51.660Z,8.95
2019-05-30T00:32:20.329Z,10.00
2019-05-30T00:34:49.041Z,8.25
2019-05-30T00:37:17.724Z,7.97
2019-05-30T00:39:46.386Z,8.00
2019-05-30T00:42:15.155Z,7.37
2019-05-30T00:44:43.824Z,8.80
2019-05-30T00:47:12.522Z,6.67
2019-05-30T00:49:41.240Z,7.10
2019-05-30T00:52:09.936Z,10.78
2019-05-30T00:54:38.688Z,9.68
2019-05-30T00:57:07.493Z,8.53
2019-05-30T00:59:36.241Z,7.80
2019-05-30T01:02:05.007Z,7.60
2019-05-30T01:04:33.670Z,6.17
2019-05-30T01:07:03.568Z,8.38
2019-05-30T01:09:32.299Z,6.35
2019-05-30T01:12:01.129Z,5.95
2019-05-30T01:14:29.830Z,7.60
2019-05-30T01:16:59.030Z,7.58
2019-05-30T01:19:27.926Z,8.58
2019-05-30T01:21:59.202Z,4.75
2019-05-30T01:24:28.018Z,6.08
2019-05-30T01:26:57.160Z,7.22
2019-05-30T01:29:25.879Z,5.90
2019-05-30T01:31:54.544Z,5.05
2019-05-30T01:34:23.253Z,4.50
2019-05-30T01:36:51.927Z,6.90
2019-05-30T01:39:20.652Z,6.37
2019-05-30T01:41:49.388Z,6.05
2019-05-30T01:44:18.048Z,3.85
2019-05-30T01:46:46.740Z,6.17
2019-05-30T01:49:15.462Z,7.67
2019-05-30T01:51:44.144Z,7.33
2019-05-30T01:54:12.916Z,2.92
2019-05-30T01:56:41.571Z,4.20
2019-05-30T01:59:10.226Z,6.10
2019-05-30T02:01:38.998Z,4.75
2019-05-30T02:04:07.671Z,5.05
2019-05-30T02:06:38.191Z,7.03
2019-05-30T02:09:09.563Z,6.28
2019-05-30T02:11:38.612Z,4.58
2019-05-30T02:14:07.715Z,11.10
2019-05-30T02:16:36.447Z,6.33
2019-05-30T02:19:05.803Z,4.87
2019-05-30T02:21:34.622Z,5.80
2019-05-30T02:24:03.832Z,5.92
2019-05-30T02:26:32.579Z,3.87
2019-05-30T02:29:01.956Z,9.75
2019-05-30T02:31:38.821Z,4.83
2019-05-30T02:34:02.915Z,6.15
2019-05-30T02:36:31.803Z,5.97
2019-05-30T02:39:00.876Z,7.05
2019-05-30T02:41:29.612Z,6.00
2019-05-30T02:43:58.375Z,4.72
2019-05-30T02:46:27.170Z,2.83
2019-05-30T02:48:59.378Z,6.75
2019-05-30T02:51:26.229Z,8.05
2019-05-30T02:53:54.925Z,6.78
2019-05-30T02:56:23.590Z,7.35
2019-05-30T02:58:52.248Z,6.83
2019-05-30T03:01:21.020Z,6.33
2019-05-30T03:03:49.672Z,8.28
2019-05-30T03:06:18.491Z,5.78
2019-05-30T03:08:47.546Z,7.00
2019-05-30T03:11:16.251Z,6.50
2019-05-30T03:13:44.898Z,5.15
2019-05-30T03:16:13.800Z,4.55
2019-05-30T03:18:42.446Z,4.95
2019-05-30T03:21:13.434Z,5.72
2019-05-30T03:23:41.653Z,3.87
2019-05-30T03:26:12.959Z,4.92
2019-05-30T03:28:40.784Z,5.72
2019-05-30T03:31:21.275Z,6.80
2019-05-30T03:33:42.883Z,3.37
2019-05-30T03:36:24.067Z,3.75
2019-05-30T03:38:41.438Z,2.92
2019-05-30T03:41:12.129Z,3.95
2019-05-30T03:43:42.530Z,6.30
2019-05-30T03:46:15.023Z,4.80
2019-05-30T03:48:47.099Z,6.62
2019-05-30T03:51:17.700Z,5.72
2019-05-30T03:53:46.615Z,6.03
2019-05-30T03:56:23.800Z,5.92
2019-05-30T03:59:01.393Z,5.62
2019-05-30T04:01:41.820Z,8.08
2019-05-30T04:04:22.513Z,4.78
2019-05-30T04:06:54.111Z,5.03
2019-05-30T04:09:25.837Z,3.00
2019-05-30T04:12:14.895Z,6.00
2019-05-30T04:14:47.194Z,4.20
2019-05-30T04:17:17.656Z,2.77
2019-05-30T04:19:46.489Z,6.15
2019-05-30T04:22:15.568Z,4.65
2019-05-30T04:24:44.403Z,4.95
2019-05-30T04:27:13.867Z,5.50
2019-05-30T04:29:42.797Z,5.83
2019-05-30T04:32:12.460Z,4.35
2019-05-30T04:34:41.284Z,6.67
2019-05-30T04:37:10.711Z,5.80
2019-05-30T04:39:39.464Z,4.15
2019-05-30T04:42:09.358Z,6.30
2019-05-30T04:44:38.571Z,4.25
2019-05-30T04:47:07.329Z,8.10
2019-05-30T04:49:36.090Z,6.45
2019-05-30T04:52:04.842Z,8.73
2019-05-30T04:54:33.517Z,9.08
2019-05-30T04:57:02.286Z,4.03
2019-05-30T04:59:31.028Z,5.60
2019-05-30T05:01:59.730Z,5.37
2019-05-30T05:04:28.449Z,7.58
2019-05-30T05:06:57.285Z,4.95
2019-05-30T05:09:26.013Z,4.40
2019-05-30T05:11:54.715Z,5.40
2019-05-30T05:14:23.458Z,5.70
2019-05-30T05:16:52.224Z,7.62
2019-05-30T05:19:22.188Z,4.75
2019-05-30T05:21:51.346Z,4.80
2019-05-30T05:24:20.013Z,3.65
2019-05-30T05:26:49.274Z,3.90
2019-05-30T05:29:18.032Z,4.33
2019-05-30T05:31:46.852Z,5.55
2019-05-30T05:34:16.552Z,5.92
2019-05-30T05:36:45.455Z,7.03
2019-05-30T05:39:14.145Z,5.40
2019-05-30T05:41:42.873Z,3.50
2019-05-30T05:44:11.568Z,8.63
2019-05-30T05:46:40.337Z,4.47
2019-05-30T05:49:09.040Z,7.08
2019-05-30T05:51:37.753Z,6.20
2019-05-30T05:54:06.530Z,6.12
2019-05-30T05:56:35.200Z,5.05
2019-05-30T05:59:03.927Z,6.15
2019-05-30T06:01:32.698Z,5.60
2019-05-30T06:04:12.584Z,4.00
2019-05-30T06:06:31.863Z,6.12
2019-05-30T06:09:00.544Z,7.80
2019-05-30T06:11:29.348Z,5.20
2019-05-30T06:13:58.060Z,6.33
2019-05-30T06:16:26.784Z,5.05
2019-05-30T06:18:55.448Z,6.35
2019-05-30T06:21:25.384Z,5.70
2019-05-30T06:23:54.249Z,5.35
2019-05-30T06:26:24.165Z,3.98
2019-05-30T06:28:53.173Z,4.35
2019-05-30T06:31:22.481Z,7.97
2019-05-30T06:33:51.253Z,4.55
2019-05-30T06:36:20.933Z,6.00
2019-05-30T06:38:49.722Z,7.28
2019-05-30T06:41:19.383Z,5.35
2019-05-30T06:43:48.130Z,5.03
2019-05-30T06:46:16.804Z,5.85
2019-05-30T06:48:45.499Z,3.95
2019-05-30T06:51:14.779Z,4.78
2019-05-30T06:53:43.770Z,6.55
2019-05-30T06:56:12.429Z,8.30
2019-05-30T06:58:48.559Z,5.22
2019-05-30T07:01:11.556Z,8.13
2019-05-30T07:03:40.399Z,4.80
2019-05-30T07:06:09.662Z,5.20
2019-05-30T07:08:38.761Z,7.70
2019-05-30T07:11:33.615Z,7.75
2019-05-30T07:14:02.753Z,4.50
2019-05-30T07:16:31.552Z,6.85
2019-05-30T07:19:02.121Z,6.20
2019-05-30T07:21:31.773Z,3.83
2019-05-30T07:24:00.943Z,8.28
2019-05-30T07:26:29.854Z,6.17
2019-05-30T07:29:00.648Z,6.70
2019-05-30T07:31:30.196Z,5.15
2019-05-30T07:33:59.045Z,6.42
2019-05-30T07:36:28.234Z,6.75
2019-05-30T07:38:56.970Z,7.40
2019-05-30T07:41:26.848Z,6.87
2019-05-30T07:43:55.700Z,5.40
2019-05-30T07:46:26.750Z,8.08
2019-05-30T07:48:55.591Z,5.42
2019-05-30T07:51:24.636Z,4.85
2019-05-30T07:53:53.337Z,9.33
2019-05-30T07:56:21.997Z,6.45
2019-05-30T07:58:52.980Z,6.75
2019-05-30T08:01:21.729Z,7.25
2019-05-30T08:03:50.401Z,8.95
2019-05-30T08:06:19.096Z,7.45
2019-05-30T08:08:47.785Z,4.95
2019-05-30T08:11:16.520Z,5.58
2019-05-30T08:13:45.222Z,5.87
2019-05-30T08:16:13.951Z,5.12
2019-05-30T08:18:42.706Z,5.15
2019-05-30T08:21:11.416Z,7.17
2019-05-30T08:23:40.226Z,7.37
2019-05-30T08:26:08.883Z,9.58
2019-05-30T08:28:38.691Z,7.03
2019-05-30T08:31:08.071Z,8.68
2019-05-30T08:33:37.653Z,7.75
2019-05-30T08:36:06.513Z,6.58
2019-05-30T08:38:35.442Z,7.28
2019-05-30T08:41:04.198Z,8.75
2019-05-30T08:43:33.382Z,6.30
2019-05-30T08:46:02.164Z,6.60
2019-05-30T08:48:32.810Z,7.58
2019-05-30T08:51:01.392Z,6.28
2019-05-30T08:53:30.224Z,5.30
2019-05-30T08:55:58.856Z,6.97
2019-05-30T08:58:27.526Z,6.12
2019-05-30T09:00:56.300Z,7.17
2019-05-30T09:03:25.035Z,9.58
2019-05-30T09:06:03.460Z,6.90
2019-05-30T09:08:24.201Z,6.53
2019-05-30T09:10:52.891Z,7.78
2019-05-30T09:13:21.618Z,8.88
2019-05-30T09:15:50.390Z,7.35
2019-05-30T09:18:19.168Z,9.25
2019-05-30T09:20:47.931Z,8.30
2019-05-30T09:23:16.690Z,11.50
2019-05-30T09:25:46.958Z,5.53
2019-05-30T09:28:15.967Z,8.05
2019-05-30T09:30:44.787Z,10.58
2019-05-30T09:33:13.626Z,6.60
2019-05-30T09:35:43.002Z,8.48
2019-05-30T09:38:11.887Z,8.88
2019-05-30T09:40:42.003Z,6.92
2019-05-30T09:43:10.853Z,7.78
2019-05-30T09:45:40.818Z,5.90
2019-05-30T09:48:09.869Z,8.68
2019-05-30T09:50:38.548Z,6.53
2019-05-30T09:53:07.334Z,7.58
2019-05-30T09:55:36.086Z,9.25
2019-05-30T09:58:04.771Z,7.00
2019-05-30T10:00:34.753Z,9.43
2019-05-30T10:03:03.533Z,10.28
2019-05-30T10:05:32.197Z,11.22
2019-05-30T10:08:00.944Z,9.80
2019-05-30T10:10:29.651Z,8.33
2019-05-30T10:12:58.369Z,10.80
2019-05-30T10:15:27.318Z,9.45
2019-05-30T10:17:57.003Z,11.48
2019-05-30T10:20:26.272Z,12.78
2019-05-30T10:22:55.073Z,8.85
2019-05-30T10:25:24.126Z,9.73
2019-05-30T10:27:54.596Z,11.10
2019-05-30T10:30:24.057Z,8.10
2019-05-30T10:32:53.816Z,8.78
2019-05-30T10:35:22.915Z,8.15
2019-05-30T10:37:52.710Z,9.93
2019-05-30T10:40:22.011Z,8.78
2019-05-30T10:42:51.690Z,12.13
2019-05-30T10:45:22.177Z,8.93
2019-05-30T10:47:51.427Z,7.67
2019-05-30T10:50:20.485Z,7.35
2019-05-30T10:52:49.488Z,8.50
2019-05-30T10:55:19.550Z,8.33
2019-05-30T10:57:49.910Z,9.00
2019-05-30T11:00:20.645Z,10.08
2019-05-30T11:02:50.033Z,12.82
2019-05-30T11:05:20.426Z,11.03
2019-05-30T11:08:01.966Z,9.78
2019-05-30T11:10:38.976Z,11.38
2019-05-30T11:13:13.761Z,7.65
2019-05-30T11:15:42.639Z,10.38
2019-05-30T11:18:11.333Z,6.40
2019-05-30T11:20:40.102Z,7.50
2019-05-30T11:23:08.864Z,7.75
2019-05-30T11:25:37.646Z,8.45
2019-05-30T11:28:07.686Z,8.75
2019-05-30T11:30:36.535Z,11.97
2019-05-30T11:33:06.023Z,10.60
2019-05-30T11:35:35.301Z,11.70
2019-05-30T11:38:04.046Z,7.53
2019-05-30T11:40:32.771Z,10.48
2019-05-30T11:43:01.432Z,7.65
2019-05-30T11:45:30.238Z,9.30
2019-05-30T11:48:00.118Z,11.70
2019-05-30T11:50:29.831Z,7.72
2019-05-30T11:53:00.263Z,10.08
2019-05-30T11:55:29.198Z,6.20
2019-05-30T11:57:58.328Z,11.15
2019-05-30T12:00:27.516Z,9.18
2019-05-30T12:02:56.627Z,7.20
2019-05-30T12:05:25.611Z,8.05
2019-05-30T12:07:54.824Z,9.65
2019-05-30T12:10:25.011Z,6.62
2019-05-30T12:12:55.161Z,8.63
2019-05-30T12:15:24.193Z,7.00
2019-05-30T12:17:53.237Z,8.85
2019-05-30T12:20:22.129Z,11.05
2019-05-30T12:22:51.771Z,5.20
2019-05-30T12:25:21.606Z,8.45
2019-05-30T12:27:50.400Z,7.03
2019-05-30T12:30:19.968Z,11.25
2019-05-30T12:32:48.664Z,10.75
2019-05-30T12:35:17.917Z,10.45
2019-05-30T12:37:54.903Z,12.58
2019-05-30T12:40:27.659Z,9.83
2019-05-30T12:43:03.696Z,10.45
2019-05-30T12:45:32.765Z,8.90
2019-05-30T12:48:01.460Z,8.73
2019-05-30T12:50:30.237Z,10.45
2019-05-30T12:53:00.488Z,8.85
2019-05-30T12:55:29.485Z,8.00
2019-05-30T12:57:58.618Z,9.25
2019-05-30T13:00:35.649Z,10.32
2019-05-30T13:03:04.412Z,9.05
2019-05-30T13:05:33.283Z,11.60
2019-05-30T13:08:21.157Z,12.07
2019-05-30T13:10:42.787Z,12.07
2019-05-30T13:13:11.483Z,10.35
2019-05-30T13:15:40.311Z,13.60
2019-05-30T13:18:08.962Z,16.05
2019-05-30T13:20:37.750Z,15.05
2019-05-30T13:23:06.980Z,15.93
2019-05-30T13:25:35.793Z,19.42
2019-05-30T13:28:07.169Z,19.52
2019-05-30T13:30:35.031Z,24.23
2019-05-30T13:33:04.934Z,20.45
2019-05-30T13:35:33.732Z,20.50
2019-05-30T13:38:03.140Z,22.15
2019-05-30T13:40:32.164Z,24.67
2019-05-30T13:43:01.902Z,27.50
2019-05-30T13:45:30.678Z,25.05
2019-05-30T13:48:00.356Z,29.52
2019-05-30T13:50:29.294Z,29.52
2019-05-30T13:52:58.892Z,25.50
2019-05-30T13:55:30.238Z,27.27
2019-05-30T13:57:59.534Z,26.60
2019-05-30T14:00:28.303Z,26.93
2019-05-30T14:02:57.076Z,26.60
2019-05-30T14:05:25.854Z,24.30
2019-05-30T14:07:54.613Z,23.65
2019-05-30T14:10:23.425Z,25.10
2019-05-30T14:12:52.113Z,25.80
2019-05-30T14:15:21.164Z,22.75
2019-05-30T14:17:49.889Z,22.60
2019-05-30T14:20:19.488Z,22.52
2019-05-30T14:22:48.327Z,24.07
2019-05-30T14:25:17.281Z,24.43
2019-05-30T14:27:45.955Z,22.73
2019-05-30T14:30:15.542Z,20.97
2019-05-30T14:32:44.242Z,20.75
2019-05-30T14:35:13.876Z,21.20
2019-05-30T14:37:42.753Z,20.00
2019-05-30T14:40:14.827Z,19.80
2019-05-30T14:42:43.616Z,20.20
2019-05-30T14:45:15.006Z,20.43
2019-05-30T14:47:43.767Z,20.10
2019-05-30T14:50:13.275Z,21.97
2019-05-30T14:52:42.317Z,17.95
2019-05-30T14:55:13.383Z,19.90
2019-05-30T14:57:42.111Z,18.32
2019-05-30T15:00:14.698Z,21.30
2019-05-30T15:02:43.924Z,20.45
2019-05-30T15:05:14.116Z,18.90
2019-05-30T15:07:42.944Z,19.35
2019-05-30T15:10:12.751Z,20.97
2019-05-30T15:12:41.572Z,19.25
2019-05-30T15:15:14.287Z,19.48
2019-05-30T15:17:41.267Z,22.65
2019-05-30T15:20:12.058Z,21.12
2019-05-30T15:22:41.011Z,19.00
2019-05-30T15:25:11.951Z,19.10
2019-05-30T15:27:40.909Z,18.95
2019-05-30T15:30:12.626Z,19.12
2019-05-30T15:32:41.541Z,19.42
2019-05-30T15:35:11.100Z,19.80
2019-05-30T15:37:41.789Z,19.92
2019-05-30T15:40:11.148Z,19.37
2019-05-30T15:42:39.848Z,17.42
2019-05-30T15:45:11.753Z,18.98
2019-05-30T15:47:40.888Z,18.48
2019-05-30T15:50:11.158Z,21.02
2019-05-30T15:52:40.612Z,18.52
2019-05-30T15:55:11.386Z,18.62
2019-05-30T15:57:40.205Z,16.62
2019-05-30T16:00:11.905Z,18.87
2019-05-30T16:02:41.356Z,20.20
2019-05-30T16:05:12.353Z,19.00
2019-05-30T16:07:41.260Z,16.82
2019-05-30T16:10:10.858Z,16.50
2019-05-30T16:12:39.731Z,16.45
2019-05-30T16:15:09.176Z,15.65
2019-05-30T16:17:37.947Z,16.85
2019-05-30T16:20:07.370Z,15.85
2019-05-30T16:22:36.184Z,16.82
2019-05-30T16:25:06.813Z,14.73
2019-05-30T16:27:35.496Z,16.62
2019-05-30T16:30:06.211Z,16.70
2019-05-30T16:32:35.061Z,16.17
2019-05-30T16:35:04.704Z,16.15
2019-05-30T16:37:33.448Z,17.20
2019-05-30T16:40:06.273Z,17.37
2019-05-30T16:42:32.812Z,17.40
2019-05-30T16:45:01.661Z,15.80
2019-05-30T16:47:30.416Z,17.92
2019-05-30T16:49:59.167Z,15.98
2019-05-30T16:52:27.814Z,18.32
2019-05-30T16:54:56.510Z,16.42
2019-05-30T16:57:25.195Z,17.05
2019-05-30T16:59:53.912Z,18.85
2019-05-30T17:02:22.872Z,18.05
2019-05-30T17:04:51.644Z,16.93
2019-05-30T17:07:21.486Z,17.92
2019-05-30T17:09:50.308Z,17.85
2019-05-30T17:12:19.545Z,17.87
2019-05-30T17:14:48.410Z,18.23
2019-05-30T17:17:18.205Z,17.05
2019-05-30T17:19:46.974Z,17.92
2019-05-30T17:22:16.607Z,16.55
2019-05-30T17:24:45.408Z,17.70
2019-05-30T17:27:14.147Z,18.75
2019-05-30T17:29:42.885Z,17.73
2019-05-30T17:32:11.642Z,18.73
2019-05-30T17:34:40.379Z,16.23
2019-05-30T17:37:09.146Z,16.25
2019-05-30T17:39:37.897Z,16.45
2019-05-30T17:42:06.678Z,15.80
2019-05-30T17:44:35.426Z,18.57
2019-05-30T17:47:04.153Z,20.40
2019-05-30T17:49:32.908Z,19.45
2019-05-30T17:52:01.624Z,17.23
2019-05-30T17:54:30.370Z,17.70
2019-05-30T17:56:59.201Z,17.27
2019-05-30T17:59:28.559Z,17.62
2019-05-30T18:02:00.652Z,19.45
2019-05-30T18:04:28.631Z,19.10
2019-05-30T18:06:59.213Z,17.50
2019-05-30T18:09:29.048Z,18.95
2019-05-30T18:11:57.968Z,18.57
2019-05-30T18:14:27.166Z,17.90
2019-05-30T18:16:56.016Z,17.10
2019-05-30T18:19:25.235Z,19.77
2019-05-30T18:21:54.287Z,18.05
2019-05-30T18:24:23.451Z,20.15
2019-05-30T18:26:52.306Z,17.87
2019-05-30T18:29:21.749Z,17.45
2019-05-30T18:31:50.595Z,19.70
2019-05-30T18:34:19.335Z,17.62
2019-05-30T18:36:48.159Z,17.50
2019-05-30T18:39:16.831Z,19.70
2019-05-30T18:41:45.529Z,17.77
2019-05-30T18:44:14.524Z,19.55
2019-05-30T18:46:43.247Z,18.52
2019-05-30T18:49:12.022Z,19.10
2019-05-30T18:51:40.759Z,20.57
2019-05-30T18:54:09.516Z,20.27
2019-05-30T18:56:38.318Z,20.17
2019-05-30T18:59:07.092Z,19.75
2019-05-30T19:01:35.855Z,19.85
2019-05-30T19:04:04.927Z,19.80
2019-05-30T19:06:33.913Z,19.90
2019-05-30T19:09:02.795Z,18.92
2019-05-30T19:11:35.306Z,20.75
2019-05-30T19:14:01.938Z,21.93
2019-05-30T19:16:30.959Z,19.80
2019-05-30T19:19:00.775Z,21.42
2019-05-30T19:21:30.027Z,21.27
2019-05-30T19:23:58.925Z,21.60
2019-05-30T19:26:28.307Z,21.20
2019-05-30T19:28:57.099Z,22.37
2019-05-30T19:31:26.462Z,21.42
2019-05-30T19:33:55.299Z,19.27
2019-05-30T19:36:24.079Z,19.32
2019-05-30T19:38:52.837Z,20.88
2019-05-30T19:41:21.533Z,19.67
2019-05-30T19:43:50.361Z,19.40
2019-05-30T19:46:19.096Z,20.68
2019-05-30T19:48:47.797Z,22.42
2019-05-30T19:51:16.517Z,21.73
2019-05-30T19:53:45.239Z,20.25
2019-05-30T19:56:13.938Z,20.65
2019-05-30T19:58:42.682Z,20.77
2019-05-30T20:01:11.388Z,23.20
2019-05-30T20:03:46.629Z,19.87
2019-05-30T20:06:10.504Z,20.77
2019-05-30T20:08:53.292Z,21.87
2019-05-30T20:11:09.697Z,21.30
2019-05-30T20:13:39.195Z,20.52
2019-05-30T20:16:07.952Z,21.20
2019-05-30T20:18:37.670Z,21.25
2019-05-30T20:21:06.562Z,21.02
2019-05-30T20:23:47.548Z,22.93
2019-05-30T20:26:05.869Z,22.40
2019-05-30T20:28:34.814Z,19.55
2019-05-30T20:31:03.610Z,20.75
2019-05-30T20:33:34.457Z,21.07
2019-05-30T20:36:03.338Z,20.62
2019-05-30T20:38:32.030Z,19.62
2019-05-30T20:41:00.711Z,21.55
2019-05-30T20:43:32.521Z,20.50
2019-05-30T20:46:00.030Z,19.67
2019-05-30T20:48:28.713Z,20.48
2019-05-30T20:50:57.454Z,21.00
2019-05-30T20:53:26.240Z,19.67
2019-05-30T20:55:54.983Z,21.48
2019-05-30T20:58:23.670Z,20.10
2019-05-30T21:00:52.532Z,20.45
2019-05-30T21:03:21.217Z,19.62
2019-05-30T21:06:10.635Z,19.77
2019-05-30T21:08:41.257Z,20.08
2019-05-30T21:11:11.022Z,24.32
2019-05-30T21:13:42.309Z,20.90
2019-05-30T21:16:13.524Z,23.27
2019-05-30T21:18:46.018Z,21.77
2019-05-30T21:21:14.944Z,21.12
2019-05-30T21:23:44.449Z,22.70
2019-05-30T21:26:14.826Z,19.25
2019-05-30T21:28:43.565Z,22.15
2019-05-30T21:31:12.260Z,21.60
2019-05-30T21:33:41.957Z,25.50
2019-05-30T21:36:11.332Z,21.75
2019-05-30T21:38:40.043Z,22.02
2019-05-30T21:41:08.812Z,20.92
2019-05-30T21:43:38.336Z,21.07
2019-05-30T21:46:07.126Z,22.52
2019-05-30T21:48:35.865Z,22.77
2019-05-30T21:51:04.576Z,25.15
2019-05-30T21:53:33.332Z,23.30
2019-05-30T21:56:02.034Z,25.48
2019-05-30T21:58:30.819Z,24.85
2019-05-30T22:01:20.744Z,22.30
2019-05-30T22:03:51.146Z,23.83
2019-05-30T22:06:19.909Z,24.90
2019-05-30T22:08:49.335Z,23.15
2019-05-30T22:11:18.264Z,24.07
2019-05-30T22:13:47.699Z,24.72
2019-05-30T22:16:16.521Z,24.72
2019-05-30T22:18:45.985Z,24.12
2019-05-30T22:21:14.999Z,25.50
2019-05-30T22:23:44.138Z,26.12
2019-05-30T22:26:14.351Z,25.90
2019-05-30T22:28:44.371Z,23.62
2019-05-30T22:31:13.202Z,23.62
2019-05-30T22:33:44.471Z,29.42
2019-05-30T22:36:13.518Z,27.07
2019-05-30T22:38:42.744Z,30.52
2019-05-30T22:41:11.569Z,25.80
2019-05-30T22:43:40.232Z,28.40
2019-05-30T22:46:08.945Z,25.35
2019-05-30T22:48:39.715Z,25.25
2019-05-30T22:51:08.447Z,26.55
2019-05-30T22:53:37.145Z,25.97
2019-05-30T22:56:05.892Z,26.57
2019-05-30T22:58:34.657Z,27.20
2019-05-30T23:01:03.361Z,25.68
2019-05-30T23:03:32.083Z,25.40
2019-05-30T23:06:00.773Z,23.90
2019-05-30T23:08:29.457Z,25.62
2019-05-30T23:10:58.161Z,25.70
2019-05-30T23:13:39.623Z,26.90
2019-05-30T23:15:57.342Z,25.40
2019-05-30T23:18:26.001Z,26.07
2019-05-30T23:20:54.890Z,27.93
2019-05-30T23:23:23.669Z,25.32
2019-05-30T23:25:53.299Z,26.37
2019-05-30T23:28:22.114Z,26.80
2019-05-30T23:30:51.968Z,25.45
2019-05-30T23:33:21.028Z,26.87
2019-05-30T23:35:50.246Z,26.73
2019-05-30T23:38:19.103Z,26.85
2019-05-30T23:40:48.948Z,25.77
2019-05-30T23:43:17.859Z,26.80
2019-05-30T23:45:46.636Z,28.17
2019-05-30T23:48:15.336Z,26.77
2019-05-30T23:50:44.105Z,26.65
2019-05-30T23:53:12.831Z,26.30
2019-05-30T23:55:41.580Z,26.82
2019-05-30T23:58:10.282Z,28.00
